METAR Data
IDs: Format: Raw Decoded Include TAF

Data at: 1202 UTC 07 Jul 2020

KFYM 071155Z AUTO 00000KT 10SM CLR 23/22 A3001 RMK A01
KFYM 071135Z AUTO 00000KT 10SM CLR 22/22 A3000 RMK A01
KFYM 071115Z AUTO 00000KT 10SM CLR 21/21 A3000 RMK A01
KFYM 071055Z AUTO 00000KT 10SM CLR 21/21 A3000 RMK A01
KFYM 071035Z AUTO 00000KT 9SM CLR 21/21 A3000 RMK A01
KFYM 071015Z AUTO 00000KT 10SM CLR 21/21 A2999 RMK A01
KFYM 070955Z AUTO 00000KT 10SM CLR 21/21 A2999 RMK A01
KFYM 070935Z AUTO 00000KT 10SM CLR 22/21 A2999 RMK A01
KFYM 070915Z AUTO 00000KT 10SM FEW042 22/21 A2999 RMK A01
KFYM 070855Z AUTO 00000KT 10SM FEW042 22/21 A2999 RMK A01
KFYM 070835Z AUTO 07003KT 10SM CLR 22/21 A2999 RMK A01
KFYM 070815Z AUTO 00000KT 22/21 A2998 RMK A01
KFYM 070755Z AUTO 00000KT 10SM CLR 22/21 A2998 RMK A01
KFYM 070735Z AUTO 00000KT 10SM CLR 23/21 A2998 RMK A01
KFYM 070715Z AUTO 00000KT 10SM FEW048 FEW055 23/21 A2998 RMK A01
KFYM 070655Z AUTO 00000KT 10SM BKN041 BKN050 23/22 A2998 RMK A01
KFYM 070635Z AUTO 00000KT 10SM BKN037 OVC043 23/21 A2999 RMK A01
KFYM 070615Z AUTO 00000KT 10SM SCT036 BKN043 BKN055 24/21 A2999 RMK A01
KFYM 070555Z AUTO 00000KT 10SM FEW038 BKN045 OVC080 24/21 A3000 RMK A01
KFYM 070535Z AUTO 00000KT 10SM SCT042 BKN055 24/21 A3001 RMK A01
KFYM 070515Z AUTO 12004KT 10SM SCT041 BKN046 BKN055 24/21 A3001 RMK A01
KFYM 070455Z AUTO 00000KT 10SM BKN047 24/21 A3001 RMK A01
KFYM 070435Z AUTO 00000KT 10SM FEW044 SCT060 24/21 A3001 RMK A01
KFYM 070415Z AUTO 08004KT 10SM BKN045 OVC055 24/21 A3000 RMK A01
KFYM 070355Z AUTO 00000KT 10SM BKN047 24/22 A3000 RMK A01
KFYM 070335Z AUTO 00000KT 10SM SCT048 SCT060 24/21 A2999 RMK A01
KFYM 070315Z AUTO 00000KT 10SM BKN060 BKN080 25/22 A2999 RMK A01
KFYM 070255Z AUTO 00000KT 10SM SCT060 OVC075 25/22 A2999 RMK A01
KFYM 070235Z AUTO 00000KT 10SM FEW060 OVC075 25/22 A2999 RMK A01
KFYM 070215Z AUTO 00000KT 10SM FEW060 SCT070 24/22 A2999 RMK A01
KFYM 070155Z AUTO 00000KT 10SM CLR 25/21 A2999 RMK A01
KFYM 070135Z AUTO 00000KT 10SM FEW070 26/21 A2998 RMK A01
KFYM 070115Z AUTO 00000KT 10SM CLR 26/21 A2997 RMK A01
KFYM 070055Z AUTO 00000KT 10SM CLR 27/22 A2997 RMK A01
KFYM 070035Z AUTO 00000KT 10SM CLR 28/21 A2997 RMK A01
KFYM 070015Z AUTO 00000KT 10SM CLR 29/20 A2997 RMK A01
KFYM 062355Z AUTO 00000KT 10SM CLR 29/20 A2997 RMK A01
KFYM 062335Z AUTO 00000KT 10SM CLR 29/19 A2996 RMK A01
KFYM 062315Z AUTO 13003KT 10SM CLR 29/20 A2996 RMK A01
KFYM 062255Z AUTO VRB03KT 10SM CLR 29/20 A2997 RMK A01
KFYM 062235Z AUTO VRB03KT 10SM CLR 30/20 A2997 RMK A01
KFYM 062215Z AUTO VRB04KT 10SM CLR 29/19 A2997 RMK A01
KFYM 062155Z AUTO 13006KT 10SM CLR 30/19 A2998 RMK A01
KFYM 062135Z AUTO 09007KT 10SM CLR 30/20 A2998 RMK A01
KFYM 062115Z AUTO 10005KT 10SM FEW036 FEW048 29/21 A2998 RMK A01
KFYM 062055Z AUTO 07005KT 10SM FEW037 FEW055 30/22 A2998 RMK A01
KFYM 062035Z AUTO 10005KT 10SM CLR 29/22 A2998 RMK A01
KFYM 062015Z AUTO 06006KT 10SM CLR 29/21 A2998 RMK A01
KFYM 061955Z AUTO 05004KT 10SM FEW032 FEW039 29/21 A2999 RMK A01
KFYM 061935Z AUTO 06005KT 10SM FEW029 SCT037 SCT045 28/21 A3000 RMK A01
KFYM 061915Z AUTO 00000KT 10SM FEW032 29/22 A3000 RMK A01
KFYM 061855Z AUTO 00000KT 10SM FEW030 SCT035 SCT042 28/22 A3000 RMK A01
KFYM 061835Z AUTO 00000KT 10SM FEW028 SCT036 28/22 A3001 RMK A01
KFYM 061815Z AUTO 16004KT 10SM FEW031 FEW050 28/22 A3002 RMK A01
KFYM 061755Z AUTO 15004KT 10SM CLR 28/22 A3002 RMK A01
KFYM 061735Z AUTO 13004KT 10SM CLR 28/22 A3002 RMK A01
KFYM 061715Z AUTO 14005KT 10SM CLR 28/22 A3003 RMK A01
KFYM 061655Z AUTO 15006KT 10SM CLR 28/22 A3003 RMK A01
KFYM 061635Z AUTO 14006KT 10SM CLR 28/22 A3004 RMK A01
KFYM 061615Z AUTO 13004KT 10SM CLR 28/22 A3004 RMK A01
KFYM 061555Z AUTO 13006KT 10SM CLR 28/22 A3004 RMK A01
KFYM 061535Z AUTO VRB04KT 10SM CLR 27/23 A3004 RMK A01
KFYM 061515Z AUTO 10004KT 10SM CLR 27/23 A3004 RMK A01
KFYM 061455Z AUTO VRB04KT 10SM CLR 26/22 A3004 RMK A01
KFYM 061435Z AUTO VRB04KT 10SM CLR 26/22 A3003 RMK A01
KFYM 061415Z AUTO 08003KT 10SM CLR 26/22 A3003 RMK A01
KFYM 061355Z AUTO 09004KT 10SM CLR 25/23 A3003 RMK A01
KFYM 061335Z AUTO 00000KT 10SM CLR 25/22 A3003 RMK A01
KFYM 061315Z AUTO 08003KT 10SM CLR 25/22 A3003 RMK A01
KFYM 061255Z AUTO 00000KT 10SM CLR 25/22 A3002 RMK A01
KFYM 061235Z AUTO 00000KT 10SM CLR 24/22 A3002 RMK A01
KFYM 061215Z AUTO 00000KT 10SM CLR 24/21 A3001 RMK A01
KFYM 061155Z AUTO 00000KT 10SM CLR 23/22 A3000 RMK A01
KFYM 061135Z AUTO 03003KT 10SM CLR 22/22 A2999 RMK A01
KFYM 061115Z AUTO 00000KT 9SM CLR 22/21 A2999 RMK A01
KFYM 061055Z AUTO 00000KT 9SM CLR 21/21 A2998 RMK A01
KFYM 061035Z AUTO 00000KT 10SM CLR 22/21 A2997 RMK A01
KFYM 061015Z AUTO 00000KT 10SM CLR 22/21 A2997 RMK A01
KFYM 060955Z AUTO 07004KT 10SM CLR 22/21 A2996 RMK A01
KFYM 060935Z AUTO 07005KT 10SM CLR 22/21 A2996 RMK A01
KFYM 060915Z AUTO 09003KT 10SM CLR 23/21 A2995 RMK A01
KFYM 060855Z AUTO 07005KT 10SM CLR 22/22 A2995 RMK A01
KFYM 060835Z AUTO 06004KT 10SM CLR 22/22 A2994 RMK A01
KFYM 060815Z AUTO 06004KT 10SM CLR 22/22 A2994 RMK A01
KFYM 060755Z AUTO 05004KT 10SM CLR 22/22 A2994 RMK A01
KFYM 060735Z AUTO 06004KT 10SM CLR 23/22 A2994 RMK A01
KFYM 060715Z AUTO 05005KT 10SM CLR 22/22 A2994 RMK A01
KFYM 060655Z AUTO 05005KT 10SM CLR 22/22 A2994 RMK A01
KFYM 060635Z AUTO 06006KT 10SM CLR 22/22 A2995 RMK A01
KFYM 060615Z AUTO 06005KT 10SM CLR 22/22 A2995 RMK A01
KFYM 060555Z AUTO 07005KT 10SM CLR 22/21 A2996 RMK A01
KFYM 060535Z AUTO 07005KT 10SM CLR 22/21 A2996 RMK A01
KFYM 060515Z AUTO 07005KT 10SM CLR 22/21 A2996 RMK A01
KFYM 060455Z AUTO 00000KT 10SM CLR 21/21 A2996 RMK A01
KFYM 060435Z AUTO 00000KT 10SM CLR 22/21 A2996 RMK A01
KFYM 060415Z AUTO 00000KT 10SM CLR 22/21 A2997 RMK A01
KFYM 060355Z AUTO 00000KT 10SM CLR 22/21 A2996 RMK A01 P0001
KFYM 060335Z AUTO 07005KT 10SM CLR 22/21 A2997 RMK A01
KFYM 060315Z AUTO 02006KT 10SM CLR 22/21 A2997 RMK A01
KFYM 060255Z AUTO 03009KT 10SM CLR 22/21 A2997 RMK A01 P0001
KFYM 060235Z AUTO 00000KT 10SM FEW026 FEW031 SCT041 22/21 A2996 RMK A01
KFYM 060215Z AUTO 35006KT 7SM BKN032 BKN055 OVC070 22/21 A2996 RMK A01
KFYM 060155Z AUTO 32004KT 9SM FEW003 SCT027 BKN039 22/20 A2996 RMK A01 P0010
KFYM 060135Z AUTO 15005G11KT 10SM FEW024 BKN041 BKN070 23/20 A2999 RMK A01
KFYM 060115Z AUTO 23005KT 10SM FEW045 FEW055 FEW065 23/19 A2998 RMK A01
KFYM 060055Z AUTO 25004G10KT 10SM SCT045 SCT055 BKN070 24/20 A2998 RMK A01
KFYM 060035Z AUTO 22012G26KT 10SM SCT055 SCT060 BKN070 25/20 A2998 RMK A01
KFYM 060015Z AUTO VRB04KT 10SM SCT060 SCT075 BKN100 24/21 A2995 RMK A01